createdAt,value
2022-10-22T00:00:23.488Z,100557.94
2022-10-22T00:03:26.374Z,100571.81
2022-10-22T00:06:29.538Z,100569.41
2022-10-22T00:09:32.532Z,100549.50
2022-10-22T00:12:35.198Z,100555.59
2022-10-22T00:15:38.019Z,100559.88
2022-10-22T00:18:41.208Z,100563.47
2022-10-22T00:21:44.018Z,100564.41
2022-10-22T00:24:46.453Z,100562.06
2022-10-22T00:27:49.308Z,100563.44
2022-10-22T00:30:58.872Z,100554.75
2022-10-22T00:34:02.324Z,100559.09
2022-10-22T00:37:04.931Z,100560.53
2022-10-22T00:40:08.429Z,100541.94
2022-10-22T00:43:16.693Z,100542.63
2022-10-22T00:46:19.332Z,100535.78
2022-10-22T00:49:21.729Z,100525.66
2022-10-22T00:52:25.337Z,100527.72
2022-10-22T00:55:29.706Z,100523.56
2022-10-22T00:58:37.056Z,100522.72
2022-10-22T01:01:40.089Z,100526.16
2022-10-22T01:04:43.060Z,100527.75
2022-10-22T01:07:50.323Z,100537.19
2022-10-22T01:11:17.299Z,100542.03
2022-10-22T01:14:51.646Z,100542.88
2022-10-22T01:17:59.382Z,100545.31
2022-10-22T01:21:16.601Z,100538.47
2022-10-22T01:24:34.603Z,100532.75
2022-10-22T01:27:57.216Z,100537.53
2022-10-22T01:31:02.430Z,100523.91
2022-10-22T01:34:08.232Z,100528.34
2022-10-22T01:37:14.679Z,100532.59
2022-10-22T01:40:17.999Z,100537.06
2022-10-22T01:43:20.684Z,100543.28
2022-10-22T01:46:26.960Z,100528.75
2022-10-22T01:49:53.991Z,100519.34
2022-10-22T01:53:20.987Z,100517.66
2022-10-22T01:56:45.831Z,100511.87
2022-10-22T01:59:57.210Z,100497.47
2022-10-22T02:03:11.408Z,100489.03
2022-10-22T02:06:19.160Z,100504.47
2022-10-22T02:09:25.316Z,100502.19
2022-10-22T02:12:30.967Z,100501.37
2022-10-22T02:15:36.037Z,100503.97
2022-10-22T02:18:43.061Z,100498.03
2022-10-22T02:21:45.879Z,100505.25
2022-10-22T02:24:49.343Z,100506.09
2022-10-22T02:28:31.934Z,100512.97
2022-10-22T02:31:39.762Z,100519.91
2022-10-22T02:34:42.175Z,100520.06
2022-10-22T02:37:45.648Z,100520.31
2022-10-22T02:40:48.108Z,100518.72
2022-10-22T02:43:54.277Z,100518.19
2022-10-22T02:46:57.084Z,100519.78
2022-10-22T02:49:59.783Z,100517.56
2022-10-22T02:53:02.449Z,100519.63
2022-10-22T02:56:05.684Z,100526.00
2022-10-22T02:59:08.044Z,100524.53
2022-10-22T03:02:10.756Z,100517.00
2022-10-22T03:05:13.437Z,100520.00
2022-10-22T03:08:16.418Z,100528.19
2022-10-22T03:11:19.126Z,100539.75
2022-10-22T03:14:21.947Z,100533.13
2022-10-22T03:17:24.438Z,100537.63
2022-10-22T03:20:27.614Z,100535.28
2022-10-22T03:23:31.808Z,100525.06
2022-10-22T03:26:35.081Z,100518.13
2022-10-22T03:29:39.275Z,100524.94
2022-10-22T03:32:42.021Z,100518.13
2022-10-22T03:35:47.482Z,100515.63
2022-10-22T03:38:50.264Z,100512.34
2022-10-22T03:41:53.424Z,100495.16
2022-10-22T03:44:56.103Z,100489.34
2022-10-22T03:47:58.534Z,100480.87
2022-10-22T03:51:01.269Z,100464.69
2022-10-22T03:54:04.200Z,100465.34
2022-10-22T03:57:07.031Z,100474.78
2022-10-22T04:00:09.932Z,100477.34
2022-10-22T04:03:13.647Z,100475.81
2022-10-22T04:06:16.384Z,100500.31
2022-10-22T04:09:19.153Z,100499.22
2022-10-22T04:12:21.556Z,100512.28
2022-10-22T04:15:26.846Z,100511.94
2022-10-22T04:18:29.408Z,100493.06
2022-10-22T04:21:32.264Z,100489.56
2022-10-22T04:24:34.764Z,100488.84
2022-10-22T04:27:37.663Z,100492.56
2022-10-22T04:30:40.234Z,100502.50
2022-10-22T04:33:43.502Z,100502.72
2022-10-22T04:36:45.907Z,100497.59
2022-10-22T04:39:48.803Z,100498.56
2022-10-22T04:42:51.166Z,100507.25
2022-10-22T04:45:53.851Z,100511.56
2022-10-22T04:48:56.551Z,100503.09
2022-10-22T04:51:59.289Z,100497.87
2022-10-22T04:55:01.780Z,100491.94
2022-10-22T04:58:04.718Z,100481.56
2022-10-22T05:01:12.978Z,100496.53
2022-10-22T05:04:16.529Z,100501.03
2022-10-22T05:07:19.068Z,100496.72
2022-10-22T05:10:21.756Z,100493.88
2022-10-22T05:13:24.230Z,100492.59
2022-10-22T05:16:29.343Z,100478.66
2022-10-22T05:19:32.134Z,100492.62
2022-10-22T05:22:35.167Z,100485.28
2022-10-22T05:25:39.066Z,100484.37
2022-10-22T05:28:42.179Z,100494.53
2022-10-22T05:31:44.668Z,100499.94
2022-10-22T05:34:47.411Z,100499.00
2022-10-22T05:37:50.012Z,100504.97
2022-10-22T05:41:04.750Z,100513.22
2022-10-22T05:44:07.322Z,100508.16
2022-10-22T05:47:10.061Z,100499.47
2022-10-22T05:50:12.444Z,100503.38
2022-10-22T05:53:15.174Z,100503.25
2022-10-22T05:56:17.651Z,100505.00
2022-10-22T05:59:20.480Z,100498.97
2022-10-22T06:02:22.901Z,100507.38
2022-10-22T06:05:25.630Z,100516.97
2022-10-22T06:08:29.110Z,100523.72
2022-10-22T06:11:34.318Z,100526.25
2022-10-22T06:14:37.883Z,100525.09
2022-10-22T06:17:40.545Z,100529.81
2022-10-22T06:20:43.755Z,100546.03
2022-10-22T06:23:46.544Z,100546.84
2022-10-22T06:26:52.640Z,100547.34
2022-10-22T06:29:55.358Z,100543.53
2022-10-22T06:32:57.804Z,100540.50
2022-10-22T06:36:12.229Z,100541.03
2022-10-22T06:39:17.119Z,100540.69
2022-10-22T06:42:19.870Z,100544.34
2022-10-22T06:45:25.023Z,100546.09
2022-10-22T06:48:28.012Z,100550.81
2022-10-22T06:51:30.442Z,100557.00
2022-10-22T06:54:33.414Z,100554.34
2022-10-22T06:57:35.898Z,100569.78
2022-10-22T07:00:38.646Z,100562.37
2022-10-22T07:03:42.161Z,100565.78
2022-10-22T07:06:44.843Z,100544.66
2022-10-22T07:09:50.583Z,100537.91
2022-10-22T07:12:54.202Z,100537.97
2022-10-22T07:15:56.684Z,100540.94
2022-10-22T07:19:01.040Z,100545.34
2022-10-22T07:22:03.907Z,100539.50
2022-10-22T07:25:07.611Z,100541.47
2022-10-22T07:28:10.611Z,100538.87
2022-10-22T07:31:15.259Z,100542.69
2022-10-22T07:34:17.955Z,100537.59
2022-10-22T07:37:22.069Z,100532.09
2022-10-22T07:40:24.528Z,100538.59
2022-10-22T07:43:27.636Z,100539.72
2022-10-22T07:46:30.074Z,100526.03
2022-10-22T07:49:32.858Z,100529.25
2022-10-22T07:52:35.345Z,100538.56
2022-10-22T07:55:38.032Z,100540.97
2022-10-22T07:58:41.562Z,100529.97
2022-10-22T08:01:44.342Z,100533.97
2022-10-22T08:04:47.155Z,100536.22
2022-10-22T08:07:49.676Z,100542.75
2022-10-22T08:10:53.806Z,100537.34
2022-10-22T08:13:56.320Z,100522.88
2022-10-22T08:16:59.077Z,100531.28
2022-10-22T08:20:01.580Z,100536.06
2022-10-22T08:23:04.271Z,100532.59
2022-10-22T08:26:06.720Z,100529.38
2022-10-22T08:29:09.565Z,100534.44
2022-10-22T08:32:12.152Z,100527.44
2022-10-22T08:35:16.972Z,100520.81
2022-10-22T08:38:20.719Z,100527.72
2022-10-22T08:41:24.656Z,100526.88
2022-10-22T08:44:45.664Z,100533.69
2022-10-22T08:48:09.690Z,100542.09
2022-10-22T08:51:16.467Z,100545.03
2022-10-22T08:54:32.114Z,100538.06
2022-10-22T08:58:00.982Z,100533.25
2022-10-22T09:01:14.083Z,100543.84
2022-10-22T09:04:42.585Z,100541.25
2022-10-22T09:07:50.498Z,100539.97
2022-10-22T09:11:05.885Z,100526.56
2022-10-22T09:17:36.731Z,100543.62
2022-10-22T09:20:53.198Z,100549.50
2022-10-22T09:24:20.183Z,100542.69
2022-10-22T09:27:27.920Z,100545.87
2022-10-22T09:30:36.701Z,100543.66
2022-10-22T09:33:41.408Z,100541.66
2022-10-22T09:36:43.802Z,100540.62
2022-10-22T09:39:51.241Z,100542.00
2022-10-22T09:42:53.736Z,100552.03
2022-10-22T09:45:59.244Z,100558.47
2022-10-22T09:49:03.755Z,100554.94
2022-10-22T09:52:27.524Z,100545.69
2022-10-22T09:55:29.950Z,100555.72
2022-10-22T09:58:43.605Z,100544.25
2022-10-22T10:01:46.021Z,100529.25
2022-10-22T10:04:51.872Z,100539.25
2022-10-22T10:07:54.342Z,100537.41
2022-10-22T10:11:02.691Z,100534.22
2022-10-22T10:14:28.017Z,100526.13
2022-10-22T10:17:41.967Z,100526.97
2022-10-22T10:20:50.519Z,100522.03
2022-10-22T10:24:05.060Z,100512.81
2022-10-22T10:27:15.077Z,100512.38
2022-10-22T10:30:25.890Z,100511.63
2022-10-22T10:33:41.302Z,100518.72
2022-10-22T10:37:19.240Z,100522.78
2022-10-22T10:40:58.450Z,100513.56
2022-10-22T10:44:22.853Z,100510.34
2022-10-22T10:47:44.292Z,100515.44
2022-10-22T10:51:11.522Z,100523.25
2022-10-22T10:54:26.126Z,100527.44
2022-10-22T10:57:51.146Z,100530.62
2022-10-22T11:00:57.512Z,100529.59
2022-10-22T11:04:41.332Z,100533.59
2022-10-22T11:07:56.093Z,100532.22
2022-10-22T11:11:21.521Z,100536.56
2022-10-22T11:14:31.912Z,100538.16
2022-10-22T11:17:42.657Z,100530.62
2022-10-22T11:21:18.780Z,100522.00
2022-10-22T11:24:47.732Z,100522.22
2022-10-22T11:28:42.118Z,100514.38
2022-10-22T11:31:45.530Z,100510.16
2022-10-22T11:34:54.977Z,100500.16
2022-10-22T11:37:58.591Z,100490.38
2022-10-22T11:41:04.653Z,100489.81
2022-10-22T11:44:07.258Z,100487.91
2022-10-22T11:47:24.021Z,100495.34
2022-10-22T11:50:47.036Z,100495.38
2022-10-22T11:53:56.569Z,100476.81
2022-10-22T11:57:14.550Z,100478.72
2022-10-22T12:00:35.576Z,100478.72
2022-10-22T12:03:53.187Z,100478.63
2022-10-22T12:07:03.540Z,100490.72
2022-10-22T12:10:18.877Z,100483.22
2022-10-22T12:13:24.802Z,100478.50
2022-10-22T12:16:54.607Z,100472.09
2022-10-22T12:20:12.844Z,100478.50
2022-10-22T12:23:15.788Z,100471.47
2022-10-22T12:29:38.578Z,100461.50
2022-10-22T12:32:41.427Z,100451.56
2022-10-22T12:35:46.086Z,100454.59
2022-10-22T12:38:48.998Z,100459.94
2022-10-22T12:41:54.008Z,100458.13
2022-10-22T12:44:56.692Z,100451.97
2022-10-22T12:48:02.983Z,100454.03
2022-10-22T12:51:09.588Z,100458.31
2022-10-22T12:54:23.443Z,100465.41
2022-10-22T12:57:25.880Z,100473.00
2022-10-22T13:00:34.545Z,100466.00
2022-10-22T13:03:41.706Z,100464.69
2022-10-22T13:06:47.226Z,100471.69
2022-10-22T13:09:59.661Z,100476.34
2022-10-22T13:13:09.079Z,100473.16
2022-10-22T13:16:21.841Z,100476.91
2022-10-22T13:19:52.506Z,100464.94
2022-10-22T13:23:02.836Z,100454.50
2022-10-22T13:26:18.303Z,100464.94
2022-10-22T13:29:22.545Z,100471.94
2022-10-22T13:32:31.651Z,100478.75
2022-10-22T13:35:36.338Z,100474.66
2022-10-22T13:38:39.461Z,100474.00
2022-10-22T13:44:44.712Z,100462.97
2022-10-22T13:47:53.229Z,100465.69
2022-10-22T13:50:55.946Z,100481.34
2022-10-22T13:53:58.503Z,100481.63
2022-10-22T13:57:01.320Z,100483.78
2022-10-22T14:00:04.087Z,100474.44
2022-10-22T14:03:21.489Z,100483.78
2022-10-22T14:06:28.389Z,100484.63
2022-10-22T14:09:30.787Z,100485.19
2022-10-22T14:12:33.483Z,100484.34
2022-10-22T14:15:36.330Z,100488.28
2022-10-22T14:18:39.180Z,100486.22
2022-10-22T14:21:41.700Z,100483.59
2022-10-22T14:24:45.617Z,100485.94
2022-10-22T14:27:51.199Z,100493.38
2022-10-22T14:30:55.205Z,100485.34
2022-10-22T14:33:57.619Z,100479.75
2022-10-22T14:37:00.406Z,100481.00
2022-10-22T14:40:02.908Z,100470.09
2022-10-22T14:43:05.929Z,100473.63
2022-10-22T14:46:11.040Z,100488.44
2022-10-22T14:49:13.807Z,100487.75
2022-10-22T14:52:16.331Z,100490.53
2022-10-22T14:55:19.945Z,100489.38
2022-10-22T14:58:22.601Z,100485.88
2022-10-22T15:01:25.689Z,100491.09
2022-10-22T15:04:28.433Z,100495.59
2022-10-22T15:07:31.230Z,100497.69
2022-10-22T15:10:33.785Z,100497.44
2022-10-22T15:13:36.590Z,100492.91
2022-10-22T15:16:39.163Z,100491.97
2022-10-22T15:19:43.558Z,100499.75
2022-10-22T15:22:46.156Z,100496.88
2022-10-22T15:25:48.918Z,100497.31
2022-10-22T15:28:51.543Z,100491.69
2022-10-22T15:32:00.506Z,100500.69
2022-10-22T15:35:05.764Z,100503.78
2022-10-22T15:38:09.290Z,100504.63
2022-10-22T15:41:13.425Z,100502.41
2022-10-22T15:44:19.501Z,100500.97
2022-10-22T15:47:22.640Z,100503.25
2022-10-22T15:50:26.269Z,100505.22
2022-10-22T15:53:28.937Z,100510.44
2022-10-22T15:56:32.448Z,100504.28
2022-10-22T15:59:35.993Z,100511.37
2022-10-22T16:02:39.165Z,100519.47
2022-10-22T16:05:50.666Z,100529.53
2022-10-22T16:08:54.814Z,100549.06
2022-10-22T16:11:57.693Z,100550.91
2022-10-22T16:15:00.352Z,100557.03
2022-10-22T16:18:03.245Z,100560.09
2022-10-22T16:21:06.039Z,100564.75
2022-10-22T16:24:09.674Z,100569.09
2022-10-22T16:27:13.575Z,100575.31
2022-10-22T16:30:16.754Z,100581.09
2022-10-22T16:33:19.387Z,100596.09
2022-10-22T16:36:22.389Z,100605.78
2022-10-22T16:39:25.220Z,100612.53
2022-10-22T16:42:28.154Z,100614.22
2022-10-22T16:45:30.883Z,100630.22
2022-10-22T16:48:34.268Z,100629.53
2022-10-22T16:51:36.944Z,100629.87
2022-10-22T16:54:40.364Z,100636.28
2022-10-22T16:57:43.513Z,100640.19
2022-10-22T17:00:53.993Z,100639.31
2022-10-22T17:03:59.542Z,100646.31
2022-10-22T17:07:02.536Z,100640.41
2022-10-22T17:10:05.974Z,100647.22
2022-10-22T17:13:08.959Z,100646.09
2022-10-22T17:16:15.550Z,100643.50
2022-10-22T17:19:18.624Z,100643.75
2022-10-22T17:22:21.649Z,100641.41
2022-10-22T17:25:36.072Z,100628.59
2022-10-22T17:28:39.048Z,100635.00
2022-10-22T17:31:42.904Z,100636.56
2022-10-22T17:34:46.081Z,100637.34
2022-10-22T17:37:49.089Z,100649.66
2022-10-22T17:40:51.815Z,100642.72
2022-10-22T17:43:56.331Z,100651.59
2022-10-22T17:47:01.069Z,100654.41
2022-10-22T17:50:04.525Z,100663.00
2022-10-22T17:53:09.321Z,100669.62
2022-10-22T17:56:15.952Z,100666.75
2022-10-22T17:59:19.092Z,100655.28
2022-10-22T18:02:22.094Z,100658.09
2022-10-22T18:05:26.153Z,100667.81
2022-10-22T18:08:28.900Z,100668.66
2022-10-22T18:11:32.557Z,100681.50
2022-10-22T18:14:35.265Z,100676.16
2022-10-22T18:17:39.755Z,100691.75
2022-10-22T18:20:42.814Z,100692.47
2022-10-22T18:23:46.380Z,100687.94
2022-10-22T18:26:50.260Z,100675.94
2022-10-22T18:29:53.345Z,100681.78
2022-10-22T18:32:56.111Z,100690.41
2022-10-22T18:36:07.930Z,100695.84
2022-10-22T18:39:14.560Z,100698.66
2022-10-22T18:42:20.735Z,100700.91
2022-10-22T18:45:24.027Z,100710.91
2022-10-22T18:48:27.311Z,100714.31
2022-10-22T18:51:30.912Z,100718.06
2022-10-22T18:54:35.256Z,100716.50
2022-10-22T18:57:37.983Z,100731.87
2022-10-22T19:00:41.160Z,100714.59
2022-10-22T19:03:44.468Z,100715.00
2022-10-22T19:06:47.662Z,100714.19
2022-10-22T19:09:50.459Z,100732.50
2022-10-22T19:12:53.531Z,100731.72
2022-10-22T19:16:02.506Z,100722.03
2022-10-22T19:19:07.251Z,100711.03
2022-10-22T19:22:10.007Z,100725.06
2022-10-22T19:25:13.029Z,100722.19
2022-10-22T19:28:16.008Z,100719.25
2022-10-22T19:31:22.157Z,100735.69
2022-10-22T19:34:25.219Z,100741.38
2022-10-22T19:37:28.608Z,100742.63
2022-10-22T19:40:31.442Z,100747.28
2022-10-22T19:43:35.063Z,100740.53
2022-10-22T19:46:37.925Z,100758.63
2022-10-22T19:49:42.459Z,100764.94
2022-10-22T19:52:46.232Z,100761.50
2022-10-22T19:55:49.114Z,100757.75
2022-10-22T19:58:51.924Z,100765.97
2022-10-22T20:01:54.958Z,100765.31
2022-10-22T20:04:57.933Z,100771.59
2022-10-22T20:08:00.719Z,100778.72
2022-10-22T20:11:10.770Z,100785.06
2022-10-22T20:14:14.080Z,100790.84
2022-10-22T20:17:17.082Z,100788.22
2022-10-22T20:20:21.978Z,100792.72
2022-10-22T20:23:28.557Z,100794.88
2022-10-22T20:26:31.752Z,100798.84
2022-10-22T20:29:35.027Z,100792.56
2022-10-22T20:32:38.613Z,100792.31
2022-10-22T20:35:42.451Z,100801.94
2022-10-22T20:38:48.118Z,100799.06
2022-10-22T20:41:51.372Z,100796.69
2022-10-22T20:44:54.033Z,100799.28
2022-10-22T20:48:02.685Z,100807.03
2022-10-22T20:51:05.790Z,100803.75
2022-10-22T20:54:09.209Z,100811.59
2022-10-22T20:57:13.395Z,100811.13
2022-10-22T21:00:16.489Z,100819.19
2022-10-22T21:03:19.354Z,100831.13
2022-10-22T21:06:23.330Z,100819.63
2022-10-22T21:09:25.963Z,100819.16
2022-10-22T21:12:28.701Z,100809.63
2022-10-22T21:15:31.047Z,100809.47
2022-10-22T21:18:34.852Z,100810.06
2022-10-22T21:21:37.522Z,100812.44
2022-10-22T21:24:41.185Z,100812.44
2022-10-22T21:27:43.701Z,100823.41
2022-10-22T21:30:46.570Z,100830.50
2022-10-22T21:33:49.982Z,100829.78
2022-10-22T21:36:53.049Z,100816.00
2022-10-22T21:39:56.176Z,100817.63
2022-10-22T21:42:58.940Z,100808.00
2022-10-22T21:46:15.514Z,100818.09
2022-10-22T21:49:18.226Z,100815.56
2022-10-22T21:52:20.682Z,100811.31
2022-10-22T21:55:23.511Z,100811.31
2022-10-22T21:58:26.396Z,100811.78
2022-10-22T22:01:29.155Z,100826.59
2022-10-22T22:04:32.021Z,100816.28
2022-10-22T22:07:34.472Z,100817.53
2022-10-22T22:10:37.176Z,100816.25
2022-10-22T22:13:42.293Z,100819.28
2022-10-22T22:16:45.070Z,100818.72
2022-10-22T22:19:47.564Z,100820.81
2022-10-22T22:22:50.260Z,100818.38
2022-10-22T22:25:52.777Z,100820.53
2022-10-22T22:28:56.201Z,100822.91
2022-10-22T22:31:58.582Z,100830.00
2022-10-22T22:35:01.399Z,100841.75
2022-10-22T22:38:04.110Z,100838.47
2022-10-22T22:41:08.011Z,100846.38
2022-10-22T22:44:10.385Z,100845.50
2022-10-22T22:47:13.100Z,100847.22
2022-10-22T22:50:15.595Z,100853.44
2022-10-22T22:53:18.424Z,100855.13
2022-10-22T22:56:23.867Z,100861.59
2022-10-22T22:59:26.721Z,100883.47
2022-10-22T23:02:29.081Z,100878.91
2022-10-22T23:05:31.826Z,100884.94
2022-10-22T23:08:34.444Z,100888.75
2022-10-22T23:11:37.727Z,100890.84
2022-10-22T23:14:40.153Z,100879.78
2022-10-22T23:17:42.878Z,100884.31
2022-10-22T23:20:45.324Z,100886.12
2022-10-22T23:23:50.297Z,100881.75
2022-10-22T23:26:55.171Z,100878.00
2022-10-22T23:29:58.179Z,100880.22
2022-10-22T23:33:00.687Z,100878.75
2022-10-22T23:36:07.006Z,100876.84
2022-10-22T23:39:15.807Z,100883.78
2022-10-22T23:42:18.533Z,100880.69
2022-10-22T23:45:21.136Z,100891.31
2022-10-22T23:48:24.297Z,100886.00
2022-10-22T23:51:27.247Z,100886.25
2022-10-22T23:54:30.095Z,100882.72
2022-10-22T23:57:32.631Z,100883.25
